FOND DU LAC (CZFD)

METAR CZFD 161400Z AUTO 08008KT 9SM M01/M05 A3031
SPECI CZFD 161349Z AUTO 08009KT 9SM UP M01/M05 A3031
METAR CZFD 161300Z AUTO 08006KT 9SM UP M02/M05 A3031
METAR CZFD 161200Z AUTO 08006KT 9SM UP M03/M06 A3031


Test Image